Billings, MT

11:14 AM MDT on August 03, 2015 (GMT -0600)
South of Castle Rock Park | | Change Station
CLOSE
Current Station
Personal Weather Station
Location: Billings, MT
Elevation: 3297 ft
Nearby Weather Stations

Elev 3297 ft 45.82 °N, 108.50 °W | Updated 5 seconds ago

Partly Cloudy
Partly Cloudy
82.1 °F
Feels Like 81 °F
N
0.9
Wind Variable Wind from North
Gusts 2.5 mph

Today
High -- | Low -- °F
--% Chance of Precip.
Yesterday
High -- | Low -- °F
Precip. -- in
5:59 AM 8:40 PM
Waning Gibbous, 85% visible
Pressure 29.91 in
Visibility 10.0 miles
Clouds Mostly Cloudy 20000 ft
Heat Index 81 °F
Dew Point 54 °F
Humidity 38%
Rainfall 0.00 in
Snow Depth Not available.
UV 4 out of 12
Pollen 6.40 out of 12
Air Quality Not available.
Flu Activity Not available.
METAR KBIL 031653Z 03004KT 10SM BKN200 23/09 A3000 RMK AO2 SLP127 T02330089

More Conditions Fewer Conditions

Pressure 29.91 in
Visibility 10.0 miles
Clouds Mostly Cloudy 20000 ft
Heat Index 81 °F
Dew Point 54 °F
Humidity 38%
Rainfall 0.00 in
Snow Depth Not available.
UV 4 out of 12
Pollen 6.40 out of 12
Air Quality Not available.
Flu Activity Not available.
METAR KBIL 031653Z 03004KT 10SM BKN200 23/09 A3000 RMK AO2 SLP127 T02330089

More Conditions Fewer Conditions

10-Day Weather Forecast

×

Almanac

Astronomy

Aug. 03, 2015 Rise Set
Actual Time
Civil Twilight
Nautical Twilight
Astronomical Twilight
Moon
Length of Visible Light
Length of Day
Tomorrow will be .
, % of the Moon is Illuminated

Today's Extremes

State Highs State Lows

Community

WunderPhotos

Upload Photos

1,843,679 photos uploaded!

WunderBlogs® & News

Nearby

Air Quality

  Air Quality AQ Index Pollutant
Not available.

Snow Depth

Station Depth Elevation

Earthquake Activity

City Distance Mag. Time & Date
Minimum magnitude displayed is 2.5.

Coastal Water Temperatures

Place Temperature

Stations

Nearby Weather Stations

Station Location Temp. Windchill Dew Point Humidity Wind Precip. Elev Updated Type